createdAt,value
2019-03-30T00:00:55.226Z,6.30
2019-03-30T00:03:23.087Z,6.20
2019-03-30T00:05:50.918Z,6.20
2019-03-30T00:08:18.863Z,6.20
2019-03-30T00:10:47.199Z,6.10
2019-03-30T00:13:15.127Z,6.10
2019-03-30T00:15:43.063Z,6.00
2019-03-30T00:18:11.055Z,6.00
2019-03-30T00:20:38.990Z,5.90
2019-03-30T00:23:06.974Z,5.90
2019-03-30T00:25:35.009Z,5.90
2019-03-30T00:28:03.024Z,5.90
2019-03-30T00:30:30.967Z,5.90
2019-03-30T00:32:58.920Z,5.80
2019-03-30T00:35:26.827Z,5.80
2019-03-30T00:37:54.761Z,5.80
2019-03-30T00:40:22.663Z,5.80
2019-03-30T00:42:50.520Z,5.80
2019-03-30T00:45:18.469Z,5.70
2019-03-30T00:47:46.393Z,5.60
2019-03-30T00:50:14.259Z,5.60
2019-03-30T00:52:42.162Z,5.60
2019-03-30T00:55:09.998Z,5.60
2019-03-30T00:57:37.907Z,5.60
2019-03-30T01:00:07.142Z,5.60
2019-03-30T01:02:35.109Z,5.60
2019-03-30T01:05:03.040Z,5.50
2019-03-30T01:07:30.876Z,5.50
2019-03-30T01:09:58.798Z,5.50
2019-03-30T01:12:26.670Z,5.50
2019-03-30T01:14:54.534Z,5.40
2019-03-30T01:17:22.482Z,5.30
2019-03-30T01:20:02.249Z,5.30
2019-03-30T01:22:20.029Z,5.20
2019-03-30T01:24:47.937Z,5.20
2019-03-30T01:27:15.827Z,5.20
2019-03-30T01:29:43.746Z,5.20
2019-03-30T01:32:11.695Z,5.20
2019-03-30T01:34:39.647Z,5.20
2019-03-30T01:37:07.495Z,5.20
2019-03-30T01:39:35.354Z,5.20
2019-03-30T01:42:03.266Z,5.10
2019-03-30T01:44:31.243Z,5.10
2019-03-30T01:46:59.146Z,5.10
2019-03-30T01:49:27.069Z,5.00
2019-03-30T01:51:54.993Z,5.00
2019-03-30T01:54:22.933Z,5.00
2019-03-30T01:56:50.884Z,5.00
2019-03-30T01:59:18.801Z,5.00
2019-03-30T02:01:46.748Z,5.00
2019-03-30T02:04:14.658Z,4.90
2019-03-30T02:06:42.698Z,5.00
2019-03-30T02:09:10.602Z,5.00
2019-03-30T02:11:38.438Z,4.90
2019-03-30T02:14:06.327Z,4.90
2019-03-30T02:16:34.154Z,4.90
2019-03-30T02:19:02.168Z,4.90
2019-03-30T02:21:30.011Z,4.80
2019-03-30T02:23:57.898Z,4.80
2019-03-30T02:26:25.755Z,4.80
2019-03-30T02:28:53.694Z,4.80
2019-03-30T02:31:21.628Z,4.80
2019-03-30T02:33:49.592Z,4.80
2019-03-30T02:36:17.487Z,4.80
2019-03-30T02:38:45.440Z,4.80
2019-03-30T02:41:13.344Z,4.80
2019-03-30T02:43:41.293Z,4.80
2019-03-30T02:46:09.177Z,4.80
2019-03-30T02:48:37.038Z,4.70
2019-03-30T02:51:05.007Z,4.60
2019-03-30T02:53:32.911Z,4.50
2019-03-30T02:56:00.865Z,4.50
2019-03-30T02:58:28.811Z,4.40
2019-03-30T03:00:56.661Z,4.40
2019-03-30T03:03:24.624Z,4.40
2019-03-30T03:05:52.577Z,4.30
2019-03-30T03:08:20.489Z,4.30
2019-03-30T03:10:48.451Z,4.30
2019-03-30T03:13:16.276Z,4.30
2019-03-30T03:15:44.211Z,4.30
2019-03-30T03:18:12.231Z,4.30
2019-03-30T03:20:40.154Z,4.20
2019-03-30T03:23:08.043Z,4.20
2019-03-30T03:25:35.952Z,4.10
2019-03-30T03:28:03.910Z,4.10
2019-03-30T03:30:31.827Z,4.10
2019-03-30T03:32:59.790Z,4.10
2019-03-30T03:35:27.691Z,4.10
2019-03-30T03:37:55.662Z,4.10
2019-03-30T03:40:23.577Z,4.10
2019-03-30T03:42:51.450Z,4.10
2019-03-30T03:45:19.350Z,4.10
2019-03-30T03:47:47.278Z,4.10
2019-03-30T03:50:34.666Z,4.10
2019-03-30T03:53:02.794Z,4.10
2019-03-30T03:55:30.833Z,4.10
2019-03-30T03:57:59.771Z,4.10
2019-03-30T04:00:27.695Z,4.00
2019-03-30T04:02:57.217Z,4.00
2019-03-30T04:05:26.924Z,4.00
2019-03-30T04:07:56.146Z,4.00
2019-03-30T04:10:25.556Z,4.00
2019-03-30T04:12:54.675Z,3.90
2019-03-30T04:15:25.648Z,3.90
2019-03-30T04:17:53.500Z,3.90
2019-03-30T04:20:24.113Z,3.90
2019-03-30T04:22:53.483Z,3.90
2019-03-30T04:25:21.639Z,3.90
2019-03-30T04:27:49.543Z,3.90
2019-03-30T04:30:17.492Z,3.80
2019-03-30T04:32:45.346Z,3.80
2019-03-30T04:35:13.297Z,3.80
2019-03-30T04:37:41.197Z,3.80
2019-03-30T04:40:09.162Z,3.80
2019-03-30T04:42:37.011Z,3.80
2019-03-30T04:45:08.055Z,3.80
2019-03-30T04:47:35.955Z,3.80
2019-03-30T04:50:05.351Z,3.90
2019-03-30T04:52:33.287Z,3.90
2019-03-30T04:55:01.355Z,3.90
2019-03-30T04:57:29.349Z,3.90
2019-03-30T04:59:57.208Z,3.80
2019-03-30T05:02:25.156Z,3.80
2019-03-30T05:04:53.086Z,3.80
2019-03-30T05:07:20.959Z,3.80
2019-03-30T05:09:48.867Z,3.90
2019-03-30T05:12:16.734Z,3.90
2019-03-30T05:14:44.661Z,3.90
2019-03-30T05:17:12.582Z,3.80
2019-03-30T05:19:40.485Z,3.80
2019-03-30T05:22:13.515Z,3.80
2019-03-30T05:24:38.066Z,3.80
2019-03-30T05:27:05.979Z,3.80
2019-03-30T05:29:33.930Z,3.80
2019-03-30T05:32:01.837Z,3.80
2019-03-30T05:34:29.708Z,3.80
2019-03-30T05:36:57.641Z,3.90
2019-03-30T05:39:25.591Z,4.00
2019-03-30T05:41:53.534Z,4.00
2019-03-30T05:44:21.470Z,4.00
2019-03-30T05:46:49.424Z,4.00
2019-03-30T05:49:17.376Z,4.10
2019-03-30T05:51:45.302Z,4.10
2019-03-30T05:54:13.242Z,4.20
2019-03-30T05:56:41.166Z,4.40
2019-03-30T05:59:09.059Z,4.60
2019-03-30T06:01:36.967Z,4.70
2019-03-30T06:04:04.928Z,4.90
2019-03-30T06:06:32.782Z,5.20
2019-03-30T06:09:00.695Z,5.40
2019-03-30T06:11:28.572Z,5.60
2019-03-30T06:13:56.486Z,5.80
2019-03-30T06:16:24.360Z,6.00
2019-03-30T06:18:52.284Z,6.20
2019-03-30T06:21:20.243Z,6.40
2019-03-30T06:23:48.716Z,6.60
2019-03-30T06:26:16.932Z,6.80
2019-03-30T06:28:44.784Z,6.90
2019-03-30T06:31:12.619Z,7.10
2019-03-30T06:33:40.585Z,7.30
2019-03-30T06:36:08.449Z,7.50
2019-03-30T06:38:36.391Z,7.70
2019-03-30T06:41:04.313Z,7.90
2019-03-30T06:43:32.217Z,8.10
2019-03-30T06:46:00.249Z,8.20
2019-03-30T06:48:28.176Z,8.40
2019-03-30T06:50:56.141Z,8.60
2019-03-30T06:53:24.776Z,8.80
2019-03-30T06:55:52.994Z,8.90
2019-03-30T06:58:21.148Z,9.10
2019-03-30T07:00:49.541Z,9.20
2019-03-30T07:03:17.748Z,9.40
2019-03-30T07:05:45.974Z,9.50
2019-03-30T07:08:14.910Z,9.60
2019-03-30T07:10:44.454Z,9.70
2019-03-30T07:13:12.706Z,9.80
2019-03-30T07:15:42.539Z,9.90
2019-03-30T07:18:10.857Z,10.00
2019-03-30T07:20:39.041Z,10.20
2019-03-30T07:23:12.163Z,10.30
2019-03-30T07:25:38.303Z,10.40
2019-03-30T07:28:06.717Z,10.60
2019-03-30T07:30:35.265Z,10.70
2019-03-30T07:33:03.305Z,10.90
2019-03-30T07:35:31.262Z,11.00
2019-03-30T07:37:59.294Z,11.10
2019-03-30T07:40:27.250Z,11.30
2019-03-30T07:42:55.239Z,11.30
2019-03-30T07:45:23.172Z,11.50
2019-03-30T07:47:51.132Z,11.60
2019-03-30T07:50:19.053Z,11.70
2019-03-30T07:52:47.024Z,11.80
2019-03-30T07:55:15.340Z,11.90
2019-03-30T07:57:43.235Z,12.00
2019-03-30T08:00:11.266Z,12.10
2019-03-30T08:02:39.311Z,12.30
2019-03-30T08:05:07.255Z,12.40
2019-03-30T08:07:35.260Z,12.50
2019-03-30T08:10:03.886Z,12.60
2019-03-30T08:12:31.796Z,12.70
2019-03-30T08:14:59.762Z,12.80
2019-03-30T08:17:27.680Z,13.00
2019-03-30T08:19:55.559Z,13.10
2019-03-30T08:22:23.475Z,13.30
2019-03-30T08:24:51.377Z,13.30
2019-03-30T08:27:19.577Z,13.40
2019-03-30T08:29:47.404Z,13.50
2019-03-30T08:32:16.395Z,13.50
2019-03-30T08:34:44.295Z,13.60
2019-03-30T08:37:12.575Z,13.70
2019-03-30T08:39:40.588Z,13.80
2019-03-30T08:42:08.476Z,13.90
2019-03-30T08:44:36.440Z,14.00
2019-03-30T08:47:04.383Z,14.10
2019-03-30T08:49:32.499Z,14.20
2019-03-30T08:52:00.463Z,14.30
2019-03-30T08:54:28.428Z,14.40
2019-03-30T08:56:56.312Z,14.40
2019-03-30T08:59:24.299Z,14.40
2019-03-30T09:01:52.251Z,14.40
2019-03-30T09:04:20.357Z,14.50
2019-03-30T09:06:48.308Z,14.50
2019-03-30T09:09:16.246Z,14.70
2019-03-30T09:11:44.209Z,14.70
2019-03-30T09:14:12.064Z,14.70
2019-03-30T09:16:40.012Z,14.90
2019-03-30T09:19:07.983Z,15.00
2019-03-30T09:21:35.874Z,15.10
2019-03-30T09:24:09.992Z,15.10
2019-03-30T09:26:33.410Z,15.30
2019-03-30T09:29:01.282Z,15.50
2019-03-30T09:31:29.224Z,15.60
2019-03-30T09:33:57.154Z,15.70
2019-03-30T09:36:25.073Z,15.70
2019-03-30T09:38:52.954Z,15.70
2019-03-30T09:41:20.912Z,15.80
2019-03-30T09:43:48.818Z,15.90
2019-03-30T09:46:16.787Z,15.90
2019-03-30T09:48:44.636Z,15.90
2019-03-30T09:51:12.624Z,15.90
2019-03-30T09:53:40.498Z,16.10
2019-03-30T09:56:08.454Z,16.20
2019-03-30T09:58:36.401Z,16.40
2019-03-30T10:01:04.345Z,16.50
2019-03-30T10:03:32.199Z,16.70
2019-03-30T10:06:00.152Z,16.90
2019-03-30T10:08:28.086Z,17.10
2019-03-30T10:10:55.972Z,17.00
2019-03-30T10:13:23.966Z,17.20
2019-03-30T10:15:51.928Z,17.30
2019-03-30T10:18:19.885Z,17.30
2019-03-30T10:20:47.820Z,17.40
2019-03-30T10:23:15.749Z,17.50
2019-03-30T10:25:43.772Z,17.50
2019-03-30T10:28:11.620Z,17.50
2019-03-30T10:30:39.568Z,17.70
2019-03-30T10:33:07.716Z,18.00
2019-03-30T10:35:35.993Z,17.70
2019-03-30T10:38:03.931Z,17.70
2019-03-30T10:40:31.861Z,17.70
2019-03-30T10:42:59.889Z,17.40
2019-03-30T10:45:27.814Z,17.70
2019-03-30T10:47:55.762Z,18.00
2019-03-30T10:50:23.695Z,18.20
2019-03-30T10:52:51.802Z,18.40
2019-03-30T10:55:19.699Z,18.60
2019-03-30T10:57:47.642Z,18.60
2019-03-30T11:00:17.140Z,18.60
2019-03-30T11:02:45.286Z,18.70
2019-03-30T11:05:13.318Z,18.90
2019-03-30T11:07:41.249Z,18.90
2019-03-30T11:10:09.215Z,19.10
2019-03-30T11:12:37.409Z,19.20
2019-03-30T11:15:06.446Z,19.10
2019-03-30T11:17:34.378Z,19.00
2019-03-30T11:20:02.268Z,18.90
2019-03-30T11:22:30.108Z,19.10
2019-03-30T11:25:07.238Z,19.20
2019-03-30T11:27:27.483Z,19.30
2019-03-30T11:29:55.698Z,19.30
2019-03-30T11:32:23.571Z,19.50
2019-03-30T11:34:51.516Z,19.40
2019-03-30T11:37:19.392Z,19.50
2019-03-30T11:39:47.344Z,19.70
2019-03-30T11:42:15.256Z,19.50
2019-03-30T11:44:43.127Z,19.60
2019-03-30T11:47:11.075Z,19.60
2019-03-30T11:49:38.995Z,19.70
2019-03-30T11:52:06.878Z,19.90
2019-03-30T11:54:34.805Z,19.80
2019-03-30T11:57:02.758Z,19.60
2019-03-30T11:59:30.602Z,19.50
2019-03-30T12:01:58.550Z,19.60
2019-03-30T12:04:26.467Z,19.40
2019-03-30T12:06:54.424Z,19.40
2019-03-30T12:09:22.358Z,19.40
2019-03-30T12:11:50.304Z,19.50
2019-03-30T12:14:18.238Z,19.30
2019-03-30T12:16:46.170Z,19.10
2019-03-30T12:19:14.086Z,19.20
2019-03-30T12:21:41.953Z,19.50
2019-03-30T12:24:09.859Z,19.40
2019-03-30T12:26:37.715Z,19.50
2019-03-30T12:29:05.672Z,19.80
2019-03-30T12:31:33.584Z,19.80
2019-03-30T12:34:01.540Z,19.80
2019-03-30T12:36:29.562Z,20.20
2019-03-30T12:38:57.407Z,20.30
2019-03-30T12:41:25.248Z,20.80
2019-03-30T12:43:53.271Z,20.90
2019-03-30T12:46:21.137Z,20.50
2019-03-30T12:48:48.982Z,20.30
2019-03-30T12:51:16.867Z,19.70
2019-03-30T12:53:50.472Z,19.50
2019-03-30T12:56:14.339Z,19.20
2019-03-30T12:58:42.265Z,19.00
2019-03-30T13:01:10.221Z,19.10
2019-03-30T13:03:38.096Z,19.20
2019-03-30T13:06:06.052Z,19.50
2019-03-30T13:08:33.933Z,19.90
2019-03-30T13:11:01.867Z,20.10
2019-03-30T13:13:29.843Z,20.40
2019-03-30T13:15:57.750Z,20.60
2019-03-30T13:18:25.689Z,20.60
2019-03-30T13:20:53.574Z,20.70
2019-03-30T13:23:21.479Z,21.00
2019-03-30T13:26:02.548Z,20.80
2019-03-30T13:28:19.005Z,20.60
2019-03-30T13:30:46.889Z,20.30
2019-03-30T13:33:14.735Z,20.00
2019-03-30T13:35:42.863Z,20.10
2019-03-30T13:38:10.830Z,20.00
2019-03-30T13:40:38.763Z,20.30
2019-03-30T13:43:06.698Z,20.70
2019-03-30T13:45:34.674Z,20.30
2019-03-30T13:48:02.600Z,20.30
2019-03-30T13:50:31.116Z,20.90
2019-03-30T13:52:59.234Z,21.10
2019-03-30T13:55:27.183Z,20.90
2019-03-30T13:57:55.047Z,20.80
2019-03-30T14:00:23.007Z,20.80
2019-03-30T14:02:50.885Z,21.00
2019-03-30T14:05:18.833Z,21.00
2019-03-30T14:07:46.773Z,20.90
2019-03-30T14:10:15.118Z,20.80
2019-03-30T14:12:43.077Z,20.70
2019-03-30T14:15:11.002Z,20.40
2019-03-30T14:17:39.071Z,20.10
2019-03-30T14:20:07.182Z,19.80
2019-03-30T14:22:35.101Z,19.70
2019-03-30T14:25:04.868Z,19.50
2019-03-30T14:27:32.796Z,19.40
2019-03-30T14:30:00.755Z,19.60
2019-03-30T14:32:28.693Z,19.90
2019-03-30T14:34:56.582Z,20.50
2019-03-30T14:37:24.507Z,21.10
2019-03-30T14:39:52.384Z,21.50
2019-03-30T14:42:20.355Z,22.20
2019-03-30T14:44:48.263Z,22.70
2019-03-30T14:47:16.153Z,22.70
2019-03-30T14:49:44.067Z,22.40
2019-03-30T14:52:12.029Z,21.70
2019-03-30T14:54:52.170Z,21.50
2019-03-30T14:57:09.535Z,21.20
2019-03-30T14:59:37.378Z,20.80
2019-03-30T15:02:05.245Z,20.60
2019-03-30T15:04:33.105Z,21.00
2019-03-30T15:07:01.054Z,21.40
2019-03-30T15:09:28.901Z,21.90
2019-03-30T15:11:57.740Z,21.90
2019-03-30T15:14:25.706Z,21.50
2019-03-30T15:16:53.576Z,20.50
2019-03-30T15:19:21.845Z,19.90
2019-03-30T15:21:49.786Z,19.60
2019-03-30T15:24:17.699Z,19.70
2019-03-30T15:26:53.896Z,20.20
2019-03-30T15:29:15.112Z,21.00
2019-03-30T15:31:43.032Z,21.60
2019-03-30T15:34:11.008Z,22.10
2019-03-30T15:36:38.905Z,22.20
2019-03-30T15:39:07.366Z,21.20
2019-03-30T15:41:35.274Z,20.60
2019-03-30T15:44:03.223Z,20.00
2019-03-30T15:46:31.080Z,19.70
2019-03-30T15:48:58.961Z,19.80
2019-03-30T15:51:26.979Z,19.90
2019-03-30T15:53:54.848Z,19.70
2019-03-30T15:56:22.756Z,19.40
2019-03-30T15:58:50.625Z,19.30
2019-03-30T16:01:18.504Z,19.50
2019-03-30T16:03:46.631Z,20.10
2019-03-30T16:06:14.601Z,20.70
2019-03-30T16:08:42.520Z,21.30
2019-03-30T16:11:10.490Z,21.60
2019-03-30T16:13:38.419Z,21.60
2019-03-30T16:16:06.391Z,21.70
2019-03-30T16:18:34.374Z,21.10
2019-03-30T16:21:02.329Z,20.20
2019-03-30T16:23:30.252Z,20.30
2019-03-30T16:25:58.265Z,20.50
2019-03-30T16:28:26.183Z,20.90
2019-03-30T16:30:54.320Z,21.30
2019-03-30T16:33:22.268Z,21.90
2019-03-30T16:35:50.126Z,22.20
2019-03-30T16:38:18.069Z,22.20
2019-03-30T16:40:46.006Z,21.70
2019-03-30T16:43:13.956Z,21.30
2019-03-30T16:45:41.875Z,20.80
2019-03-30T16:48:09.836Z,20.60
2019-03-30T16:50:37.770Z,20.40
2019-03-30T16:53:05.721Z,20.10
2019-03-30T16:55:33.639Z,19.80
2019-03-30T16:58:01.575Z,19.40
2019-03-30T17:00:30.967Z,18.90
2019-03-30T17:02:58.847Z,18.70
2019-03-30T17:05:26.782Z,18.70
2019-03-30T17:07:54.705Z,18.70
2019-03-30T17:10:22.647Z,18.50
2019-03-30T17:12:50.505Z,18.40
2019-03-30T17:15:18.455Z,18.00
2019-03-30T17:17:46.354Z,17.70
2019-03-30T17:20:14.282Z,17.50
2019-03-30T17:22:42.246Z,17.40
2019-03-30T17:25:10.171Z,17.20
2019-03-30T17:27:38.241Z,17.10
2019-03-30T17:30:09.641Z,17.00
2019-03-30T17:32:37.555Z,16.90
2019-03-30T17:35:06.108Z,16.70
2019-03-30T17:37:34.028Z,16.60
2019-03-30T17:40:01.980Z,16.50
2019-03-30T17:42:29.927Z,16.40
2019-03-30T17:44:57.842Z,16.30
2019-03-30T17:47:25.720Z,16.20
2019-03-30T17:49:53.691Z,16.10
2019-03-30T17:52:21.608Z,15.90
2019-03-30T17:54:49.491Z,15.80
2019-03-30T17:57:17.745Z,15.70
2019-03-30T17:59:45.783Z,15.60
2019-03-30T18:02:13.853Z,15.50
2019-03-30T18:04:41.703Z,15.40
2019-03-30T18:07:09.652Z,15.30
2019-03-30T18:09:37.541Z,15.10
2019-03-30T18:12:05.448Z,15.00
2019-03-30T18:14:33.327Z,14.90
2019-03-30T18:17:01.244Z,14.80
2019-03-30T18:19:29.218Z,14.70
2019-03-30T18:21:57.148Z,14.60
2019-03-30T18:24:25.085Z,14.60
2019-03-30T18:26:52.949Z,14.40
2019-03-30T18:29:20.941Z,14.30
2019-03-30T18:31:48.870Z,14.20
2019-03-30T18:34:16.808Z,14.20
2019-03-30T18:36:44.865Z,14.10
2019-03-30T18:39:12.723Z,14.10
2019-03-30T18:41:40.693Z,14.10
2019-03-30T18:44:08.697Z,14.00
2019-03-30T18:46:36.733Z,14.00
2019-03-30T18:49:04.717Z,14.00
2019-03-30T18:51:33.027Z,13.90
2019-03-30T18:54:01.176Z,13.90
2019-03-30T18:56:29.091Z,13.80
2019-03-30T18:58:57.044Z,13.80
2019-03-30T19:01:24.991Z,13.70
2019-03-30T19:03:52.950Z,13.60
2019-03-30T19:06:20.846Z,13.60
2019-03-30T19:08:48.757Z,13.50
2019-03-30T19:11:16.743Z,13.40
2019-03-30T19:13:44.669Z,13.30
2019-03-30T19:16:12.611Z,13.20
2019-03-30T19:18:40.524Z,13.20
2019-03-30T19:21:08.498Z,13.10
2019-03-30T19:23:36.422Z,13.10
2019-03-30T19:26:04.374Z,13.00
2019-03-30T19:28:32.290Z,13.00
2019-03-30T19:31:00.177Z,12.90
2019-03-30T19:33:28.071Z,12.90
2019-03-30T19:35:55.999Z,13.10
2019-03-30T19:38:23.907Z,13.30
2019-03-30T19:40:51.834Z,13.30
2019-03-30T19:43:19.797Z,13.30
2019-03-30T19:45:47.721Z,13.20
2019-03-30T19:48:15.614Z,13.20
2019-03-30T19:50:43.545Z,13.10
2019-03-30T19:53:11.597Z,13.10
2019-03-30T19:55:39.515Z,13.10
2019-03-30T19:58:07.446Z,13.10
2019-03-30T20:00:38.513Z,13.10
2019-03-30T20:03:04.985Z,13.00
2019-03-30T20:05:32.868Z,13.00
2019-03-30T20:08:11.467Z,12.90
2019-03-30T20:10:30.333Z,12.90
2019-03-30T20:12:58.287Z,12.80
2019-03-30T20:15:26.257Z,12.80
2019-03-30T20:17:54.104Z,12.80
2019-03-30T20:20:22.083Z,12.70
2019-03-30T20:22:50.027Z,12.70
2019-03-30T20:25:18.031Z,12.50
2019-03-30T20:27:45.966Z,12.40
2019-03-30T20:30:13.999Z,12.40
2019-03-30T20:32:43.279Z,12.20
2019-03-30T20:35:11.277Z,12.20
2019-03-30T20:37:39.227Z,12.10
2019-03-30T20:40:07.570Z,12.00
2019-03-30T20:42:35.634Z,12.00
2019-03-30T20:45:04.893Z,12.00
2019-03-30T20:47:32.799Z,11.90
2019-03-30T20:50:00.740Z,11.90
2019-03-30T20:52:28.582Z,11.80
2019-03-30T20:54:56.541Z,11.70
2019-03-30T20:57:24.485Z,11.70
2019-03-30T20:59:52.427Z,11.60
2019-03-30T21:02:20.281Z,11.50
2019-03-30T21:04:48.167Z,11.40
2019-03-30T21:07:16.076Z,11.20
2019-03-30T21:09:44.006Z,11.10
2019-03-30T21:12:11.950Z,11.10
2019-03-30T21:14:39.923Z,11.10
2019-03-30T21:17:07.863Z,11.00
2019-03-30T21:19:35.824Z,11.00
2019-03-30T21:22:03.768Z,10.90
2019-03-30T21:24:31.703Z,10.90
2019-03-30T21:26:59.651Z,10.80
2019-03-30T21:29:27.564Z,10.70
2019-03-30T21:31:55.510Z,10.70
2019-03-30T21:34:23.428Z,10.60
2019-03-30T21:36:51.304Z,10.60
2019-03-30T21:39:19.187Z,10.50
2019-03-30T21:41:47.137Z,10.40
2019-03-30T21:44:21.867Z,10.30
2019-03-30T21:46:44.609Z,10.20
2019-03-30T21:49:12.503Z,10.10
2019-03-30T21:51:40.405Z,10.00
2019-03-30T21:54:08.365Z,9.90
2019-03-30T21:56:36.266Z,9.90
2019-03-30T21:59:04.230Z,9.90
2019-03-30T22:01:32.090Z,9.80
2019-03-30T22:04:00.108Z,9.70
2019-03-30T22:06:28.038Z,9.60
2019-03-30T22:08:55.979Z,9.60
2019-03-30T22:11:23.832Z,9.50
2019-03-30T22:13:51.781Z,9.50
2019-03-30T22:16:19.703Z,9.40
2019-03-30T22:18:47.628Z,9.40
2019-03-30T22:21:15.503Z,9.40
2019-03-30T22:23:43.434Z,9.40
2019-03-30T22:26:11.376Z,9.40
2019-03-30T22:28:39.291Z,9.40
2019-03-30T22:31:07.239Z,9.40
2019-03-30T22:33:35.170Z,9.30
2019-03-30T22:36:03.350Z,9.30
2019-03-30T22:38:31.221Z,9.30
2019-03-30T22:40:59.165Z,9.20
2019-03-30T22:43:27.126Z,9.20
2019-03-30T22:45:55.040Z,9.20
2019-03-30T22:48:22.911Z,9.20
2019-03-30T22:50:50.898Z,9.10
2019-03-30T22:53:18.846Z,9.00
2019-03-30T22:55:46.776Z,9.00
2019-03-30T22:58:14.648Z,8.90
2019-03-30T23:00:44.210Z,8.80
2019-03-30T23:03:12.164Z,8.90
2019-03-30T23:05:40.077Z,9.00
2019-03-30T23:08:08.061Z,9.00
2019-03-30T23:10:35.971Z,9.10
2019-03-30T23:13:04.032Z,9.10
2019-03-30T23:15:31.982Z,9.10
2019-03-30T23:17:59.892Z,9.20
2019-03-30T23:20:27.769Z,9.10
2019-03-30T23:22:55.682Z,9.20
2019-03-30T23:25:23.623Z,9.20
2019-03-30T23:27:51.466Z,9.20
2019-03-30T23:30:21.039Z,9.10
2019-03-30T23:32:48.878Z,9.10
2019-03-30T23:35:16.729Z,9.10
2019-03-30T23:37:44.613Z,9.00
2019-03-30T23:40:12.623Z,9.00
2019-03-30T23:42:40.502Z,9.00
2019-03-30T23:45:08.460Z,9.00
2019-03-30T23:47:36.443Z,8.90
2019-03-30T23:50:05.420Z,8.90
2019-03-30T23:52:33.676Z,8.90
2019-03-30T23:55:01.536Z,8.90
2019-03-30T23:57:29.434Z,8.90
2019-03-30T23:59:57.281Z,8.90
